Rowley, Massachusetts
Current Conditions -  °F | °C
As of 10:06 AM on Thursday 23 Oct 2014 (Local Time) from KBVY Reporting Station
Moderate Rain Moderate Rain  
Wind Chill: 51°   Ceiling: 900
Heat Index: 51°   Visibility: 3mi
Dew Point: 49°   Wind: 24mph
Humidity: 92%   Direction: 360°N
Pressure: 29.61"   Gusts: 33mph
Location:  42.72°N, 70.88°W
Report Text: KBVY 231406Z 36021G29KT 3SM RA BR BKN009 OVC016 11/09 A2961 RMK AO2 PK WND 35030/1355 P0004 T01060094
Loading
Personal Weather Stations






























Interactive Weather Map
Tropical Storm Tracking
New forecast layout! Learn more

10-Day Weather Forecast

Advertisements
Track Severe Weather on mobile